sensor_id;sensor_type;location;lat;lon;timestamp;P1;durP1;ratioP1;P2;durP2;ratioP2
18568;SDS011;14780;48.316;-1.050;2023-01-25T00:02:14;11.10;;;8.50;;
18568;SDS011;14780;48.316;-1.050;2023-01-25T00:04:59;10.70;;;8.63;;
18568;SDS011;14780;48.316;-1.050;2023-01-25T00:07:43;10.00;;;8.32;;
18568;SDS011;14780;48.316;-1.050;2023-01-25T00:10:28;12.15;;;9.35;;
18568;SDS011;14780;48.316;-1.050;2023-01-25T00:13:12;11.15;;;8.27;;
18568;SDS011;14780;48.316;-1.050;2023-01-25T00:16:01;12.07;;;8.95;;
18568;SDS011;14780;48.316;-1.050;2023-01-25T00:18:47;10.63;;;8.55;;
18568;SDS011;14780;48.316;-1.050;2023-01-25T00:21:32;11.95;;;9.15;;
18568;SDS011;14780;48.316;-1.050;2023-01-25T00:24:18;11.38;;;8.48;;
18568;SDS011;14780;48.316;-1.050;2023-01-25T00:27:05;11.30;;;8.38;;
18568;SDS011;14780;48.316;-1.050;2023-01-25T00:29:50;10.55;;;8.40;;
18568;SDS011;14780;48.316;-1.050;2023-01-25T00:32:36;11.02;;;8.63;;
18568;SDS011;14780;48.316;-1.050;2023-01-25T00:35:32;10.82;;;8.43;;
18568;SDS011;14780;48.316;-1.050;2023-01-25T00:38:28;10.15;;;8.20;;
18568;SDS011;14780;48.316;-1.050;2023-01-25T00:41:17;11.00;;;8.73;;
18568;SDS011;14780;48.316;-1.050;2023-01-25T00:44:02;11.52;;;8.80;;
18568;SDS011;14780;48.316;-1.050;2023-01-25T00:46:47;10.50;;;8.43;;
18568;SDS011;14780;48.316;-1.050;2023-01-25T00:49:32;9.63;;;7.95;;
18568;SDS011;14780;48.316;-1.050;2023-01-25T00:52:17;10.10;;;7.85;;
18568;SDS011;14780;48.316;-1.050;2023-01-25T00:55:02;10.57;;;8.00;;
18568;SDS011;14780;48.316;-1.050;2023-01-25T00:57:47;10.70;;;8.18;;
18568;SDS011;14780;48.316;-1.050;2023-01-25T01:00:31;13.25;;;7.65;;
18568;SDS011;14780;48.316;-1.050;2023-01-25T01:03:16;10.93;;;8.48;;
18568;SDS011;14780;48.316;-1.050;2023-01-25T01:06:05;11.25;;;8.27;;
18568;SDS011;14780;48.316;-1.050;2023-01-25T01:08:52;10.23;;;8.13;;
18568;SDS011;14780;48.316;-1.050;2023-01-25T01:11:36;9.75;;;7.57;;
18568;SDS011;14780;48.316;-1.050;2023-01-25T01:14:21;10.13;;;8.23;;
18568;SDS011;14780;48.316;-1.050;2023-01-25T01:17:06;11.35;;;8.45;;
18568;SDS011;14780;48.316;-1.050;2023-01-25T01:19:51;10.45;;;7.85;;
18568;SDS011;14780;48.316;-1.050;2023-01-25T01:22:36;11.05;;;8.13;;
18568;SDS011;14780;48.316;-1.050;2023-01-25T01:25:20;10.70;;;8.10;;
18568;SDS011;14780;48.316;-1.050;2023-01-25T01:28:05;10.23;;;7.97;;
18568;SDS011;14780;48.316;-1.050;2023-01-25T01:30:49;10.95;;;7.78;;
18568;SDS011;14780;48.316;-1.050;2023-01-25T01:33:34;10.43;;;8.00;;
18568;SDS011;14780;48.316;-1.050;2023-01-25T01:36:20;9.40;;;7.78;;
18568;SDS011;14780;48.316;-1.050;2023-01-25T01:39:06;10.52;;;8.15;;
18568;SDS011;14780;48.316;-1.050;2023-01-25T01:41:51;10.75;;;8.00;;
18568;SDS011;14780;48.316;-1.050;2023-01-25T01:44:41;10.65;;;8.40;;
18568;SDS011;14780;48.316;-1.050;2023-01-25T01:47:47;10.43;;;7.63;;
18568;SDS011;14780;48.316;-1.050;2023-01-25T01:50:31;10.05;;;7.70;;
18568;SDS011;14780;48.316;-1.050;2023-01-25T01:53:16;9.82;;;7.93;;
18568;SDS011;14780;48.316;-1.050;2023-01-25T01:56:02;10.82;;;8.48;;
18568;SDS011;14780;48.316;-1.050;2023-01-25T01:58:52;12.15;;;8.20;;
18568;SDS011;14780;48.316;-1.050;2023-01-25T02:01:41;9.63;;;7.68;;
18568;SDS011;14780;48.316;-1.050;2023-01-25T02:04:27;9.68;;;7.57;;
18568;SDS011;14780;48.316;-1.050;2023-01-25T02:07:17;10.23;;;8.25;;
18568;SDS011;14780;48.316;-1.050;2023-01-25T02:10:06;9.27;;;7.10;;
18568;SDS011;14780;48.316;-1.050;2023-01-25T02:12:53;9.88;;;7.80;;
18568;SDS011;14780;48.316;-1.050;2023-01-25T02:15:46;9.65;;;7.53;;
18568;SDS011;14780;48.316;-1.050;2023-01-25T02:18:34;10.27;;;7.32;;
18568;SDS011;14780;48.316;-1.050;2023-01-25T02:21:18;8.80;;;7.20;;
18568;SDS011;14780;48.316;-1.050;2023-01-25T02:24:15;10.20;;;8.07;;
18568;SDS011;14780;48.316;-1.050;2023-01-25T02:27:06;10.18;;;8.23;;
18568;SDS011;14780;48.316;-1.050;2023-01-25T02:29:51;9.05;;;7.30;;
18568;SDS011;14780;48.316;-1.050;2023-01-25T02:32:36;10.68;;;7.95;;
18568;SDS011;14780;48.316;-1.050;2023-01-25T02:35:41;10.18;;;8.15;;
18568;SDS011;14780;48.316;-1.050;2023-01-25T02:38:42;10.15;;;8.05;;
18568;SDS011;14780;48.316;-1.050;2023-01-25T02:41:41;9.25;;;7.63;;
18568;SDS011;14780;48.316;-1.050;2023-01-25T02:44:28;8.88;;;7.55;;
18568;SDS011;14780;48.316;-1.050;2023-01-25T02:47:15;10.65;;;7.70;;
18568;SDS011;14780;48.316;-1.050;2023-01-25T02:49:59;10.20;;;7.80;;
18568;SDS011;14780;48.316;-1.050;2023-01-25T02:52:45;9.85;;;7.68;;
18568;SDS011;14780;48.316;-1.050;2023-01-25T02:55:29;9.70;;;7.32;;
18568;SDS011;14780;48.316;-1.050;2023-01-25T02:58:14;10.60;;;7.88;;
18568;SDS011;14780;48.316;-1.050;2023-01-25T03:00:58;10.48;;;7.93;;
18568;SDS011;14780;48.316;-1.050;2023-01-25T03:03:43;10.80;;;8.05;;
18568;SDS011;14780;48.316;-1.050;2023-01-25T03:06:28;10.32;;;7.70;;
18568;SDS011;14780;48.316;-1.050;2023-01-25T03:09:13;11.10;;;7.82;;
18568;SDS011;14780;48.316;-1.050;2023-01-25T03:11:57;10.63;;;7.97;;
18568;SDS011;14780;48.316;-1.050;2023-01-25T03:14:42;11.95;;;7.40;;
18568;SDS011;14780;48.316;-1.050;2023-01-25T03:17:27;11.30;;;7.78;;
18568;SDS011;14780;48.316;-1.050;2023-01-25T03:20:13;11.15;;;7.95;;
18568;SDS011;14780;48.316;-1.050;2023-01-25T03:22:59;11.20;;;7.57;;
18568;SDS011;14780;48.316;-1.050;2023-01-25T03:25:43;11.98;;;8.77;;
18568;SDS011;14780;48.316;-1.050;2023-01-25T03:28:28;11.68;;;7.10;;
18568;SDS011;14780;48.316;-1.050;2023-01-25T03:31:14;10.05;;;7.05;;
18568;SDS011;14780;48.316;-1.050;2023-01-25T03:33:59;10.27;;;7.40;;
18568;SDS011;14780;48.316;-1.050;2023-01-25T03:36:44;8.90;;;7.38;;
18568;SDS011;14780;48.316;-1.050;2023-01-25T03:39:29;10.98;;;7.43;;
18568;SDS011;14780;48.316;-1.050;2023-01-25T03:42:13;10.23;;;7.75;;
18568;SDS011;14780;48.316;-1.050;2023-01-25T03:44:58;9.38;;;7.15;;
18568;SDS011;14780;48.316;-1.050;2023-01-25T03:47:42;10.25;;;7.40;;
18568;SDS011;14780;48.316;-1.050;2023-01-25T03:50:27;10.02;;;7.40;;
18568;SDS011;14780;48.316;-1.050;2023-01-25T03:53:21;10.35;;;8.00;;
18568;SDS011;14780;48.316;-1.050;2023-01-25T03:56:12;9.43;;;7.05;;
18568;SDS011;14780;48.316;-1.050;2023-01-25T03:59:02;10.45;;;7.53;;
18568;SDS011;14780;48.316;-1.050;2023-01-25T04:01:47;9.95;;;7.28;;
18568;SDS011;14780;48.316;-1.050;2023-01-25T04:04:32;9.38;;;7.32;;
18568;SDS011;14780;48.316;-1.050;2023-01-25T04:07:16;9.10;;;6.93;;
18568;SDS011;14780;48.316;-1.050;2023-01-25T04:10:01;9.57;;;7.38;;
18568;SDS011;14780;48.316;-1.050;2023-01-25T04:12:46;9.85;;;7.43;;
18568;SDS011;14780;48.316;-1.050;2023-01-25T04:15:31;8.98;;;7.15;;
18568;SDS011;14780;48.316;-1.050;2023-01-25T04:18:16;10.18;;;7.68;;
18568;SDS011;14780;48.316;-1.050;2023-01-25T04:21:01;9.38;;;7.35;;
18568;SDS011;14780;48.316;-1.050;2023-01-25T04:23:46;8.82;;;7.03;;
18568;SDS011;14780;48.316;-1.050;2023-01-25T04:26:31;9.60;;;7.03;;
18568;SDS011;14780;48.316;-1.050;2023-01-25T04:29:16;9.05;;;6.97;;
18568;SDS011;14780;48.316;-1.050;2023-01-25T04:32:00;8.77;;;6.90;;
18568;SDS011;14780;48.316;-1.050;2023-01-25T04:34:45;8.80;;;6.68;;
18568;SDS011;14780;48.316;-1.050;2023-01-25T04:37:29;9.02;;;6.95;;
18568;SDS011;14780;48.316;-1.050;2023-01-25T04:40:14;9.20;;;6.70;;
18568;SDS011;14780;48.316;-1.050;2023-01-25T04:42:58;10.85;;;6.80;;
18568;SDS011;14780;48.316;-1.050;2023-01-25T04:45:43;10.05;;;7.68;;
18568;SDS011;14780;48.316;-1.050;2023-01-25T04:48:28;10.98;;;7.28;;
18568;SDS011;14780;48.316;-1.050;2023-01-25T04:51:13;9.52;;;7.50;;
18568;SDS011;14780;48.316;-1.050;2023-01-25T04:53:58;9.75;;;6.88;;
18568;SDS011;14780;48.316;-1.050;2023-01-25T04:56:43;9.85;;;7.43;;
18568;SDS011;14780;48.316;-1.050;2023-01-25T04:59:27;9.70;;;7.03;;
18568;SDS011;14780;48.316;-1.050;2023-01-25T05:02:12;9.85;;;7.38;;
18568;SDS011;14780;48.316;-1.050;2023-01-25T05:04:57;10.27;;;7.07;;
18568;SDS011;14780;48.316;-1.050;2023-01-25T05:07:42;10.65;;;7.53;;
18568;SDS011;14780;48.316;-1.050;2023-01-25T05:10:26;8.23;;;6.70;;
18568;SDS011;14780;48.316;-1.050;2023-01-25T05:13:11;9.15;;;7.03;;
18568;SDS011;14780;48.316;-1.050;2023-01-25T05:15:56;10.23;;;7.25;;
18568;SDS011;14780;48.316;-1.050;2023-01-25T05:18:40;9.52;;;7.63;;
18568;SDS011;14780;48.316;-1.050;2023-01-25T05:21:25;9.02;;;7.25;;
18568;SDS011;14780;48.316;-1.050;2023-01-25T05:24:29;10.27;;;7.93;;
18568;SDS011;14780;48.316;-1.050;2023-01-25T05:27:16;10.02;;;7.75;;
18568;SDS011;14780;48.316;-1.050;2023-01-25T05:30:02;8.70;;;6.97;;
18568;SDS011;14780;48.316;-1.050;2023-01-25T05:32:48;9.52;;;7.32;;
18568;SDS011;14780;48.316;-1.050;2023-01-25T05:35:32;10.38;;;6.90;;
18568;SDS011;14780;48.316;-1.050;2023-01-25T05:38:17;11.02;;;7.32;;
18568;SDS011;14780;48.316;-1.050;2023-01-25T05:41:02;10.30;;;7.53;;
18568;SDS011;14780;48.316;-1.050;2023-01-25T05:43:47;10.48;;;7.78;;
18568;SDS011;14780;48.316;-1.050;2023-01-25T05:46:32;10.02;;;7.28;;
18568;SDS011;14780;48.316;-1.050;2023-01-25T05:49:17;9.02;;;6.97;;
18568;SDS011;14780;48.316;-1.050;2023-01-25T05:52:02;8.98;;;6.93;;
18568;SDS011;14780;48.316;-1.050;2023-01-25T05:54:47;9.98;;;6.95;;
18568;SDS011;14780;48.316;-1.050;2023-01-25T05:57:32;9.07;;;7.15;;
18568;SDS011;14780;48.316;-1.050;2023-01-25T06:00:17;9.02;;;7.18;;
18568;SDS011;14780;48.316;-1.050;2023-01-25T06:03:02;9.55;;;7.05;;
18568;SDS011;14780;48.316;-1.050;2023-01-25T06:05:46;8.32;;;7.05;;
18568;SDS011;14780;48.316;-1.050;2023-01-25T06:08:36;9.65;;;7.15;;
18568;SDS011;14780;48.316;-1.050;2023-01-25T06:11:21;9.57;;;7.15;;
18568;SDS011;14780;48.316;-1.050;2023-01-25T06:14:07;9.07;;;7.10;;
18568;SDS011;14780;48.316;-1.050;2023-01-25T06:16:51;9.07;;;6.68;;
18568;SDS011;14780;48.316;-1.050;2023-01-25T06:19:36;10.02;;;7.22;;
18568;SDS011;14780;48.316;-1.050;2023-01-25T06:22:21;8.80;;;6.35;;
18568;SDS011;14780;48.316;-1.050;2023-01-25T06:25:06;11.35;;;7.07;;
18568;SDS011;14780;48.316;-1.050;2023-01-25T06:27:53;11.38;;;7.30;;
18568;SDS011;14780;48.316;-1.050;2023-01-25T06:30:38;9.73;;;6.70;;
18568;SDS011;14780;48.316;-1.050;2023-01-25T06:33:23;9.82;;;6.82;;
18568;SDS011;14780;48.316;-1.050;2023-01-25T06:36:11;9.90;;;7.05;;
18568;SDS011;14780;48.316;-1.050;2023-01-25T06:38:58;10.70;;;7.28;;
18568;SDS011;14780;48.316;-1.050;2023-01-25T06:41:43;12.82;;;7.60;;
18568;SDS011;14780;48.316;-1.050;2023-01-25T06:44:27;10.13;;;6.80;;
18568;SDS011;14780;48.316;-1.050;2023-01-25T06:47:12;11.45;;;7.75;;
18568;SDS011;14780;48.316;-1.050;2023-01-25T06:49:56;9.80;;;7.50;;
18568;SDS011;14780;48.316;-1.050;2023-01-25T06:52:41;9.90;;;7.60;;
18568;SDS011;14780;48.316;-1.050;2023-01-25T06:55:26;11.80;;;7.85;;
18568;SDS011;14780;48.316;-1.050;2023-01-25T06:58:10;10.82;;;8.15;;
18568;SDS011;14780;48.316;-1.050;2023-01-25T07:01:28;12.02;;;8.85;;
18568;SDS011;14780;48.316;-1.050;2023-01-25T07:04:09;14.05;;;9.00;;
18568;SDS011;14780;48.316;-1.050;2023-01-25T07:06:54;11.63;;;8.50;;
18568;SDS011;14780;48.316;-1.050;2023-01-25T07:09:40;13.98;;;8.15;;
18568;SDS011;14780;48.316;-1.050;2023-01-25T07:12:25;11.10;;;8.45;;
18568;SDS011;14780;48.316;-1.050;2023-01-25T07:15:11;11.40;;;8.52;;
18568;SDS011;14780;48.316;-1.050;2023-01-25T07:17:56;11.55;;;8.10;;
18568;SDS011;14780;48.316;-1.050;2023-01-25T07:20:40;11.82;;;8.63;;
18568;SDS011;14780;48.316;-1.050;2023-01-25T07:23:25;12.95;;;8.25;;
18568;SDS011;14780;48.316;-1.050;2023-01-25T07:26:20;11.80;;;8.40;;
18568;SDS011;14780;48.316;-1.050;2023-01-25T07:29:07;11.75;;;8.85;;
18568;SDS011;14780;48.316;-1.050;2023-01-25T07:31:56;13.02;;;9.30;;
18568;SDS011;14780;48.316;-1.050;2023-01-25T07:34:41;12.27;;;8.95;;
18568;SDS011;14780;48.316;-1.050;2023-01-25T07:37:26;11.88;;;9.20;;
18568;SDS011;14780;48.316;-1.050;2023-01-25T07:40:11;11.88;;;9.38;;
18568;SDS011;14780;48.316;-1.050;2023-01-25T07:42:57;13.18;;;9.10;;
18568;SDS011;14780;48.316;-1.050;2023-01-25T07:45:41;15.18;;;9.23;;
18568;SDS011;14780;48.316;-1.050;2023-01-25T07:48:31;12.68;;;10.25;;
18568;SDS011;14780;48.316;-1.050;2023-01-25T07:51:18;14.85;;;10.10;;
18568;SDS011;14780;48.316;-1.050;2023-01-25T07:54:08;14.95;;;9.93;;
18568;SDS011;14780;48.316;-1.050;2023-01-25T07:56:54;14.45;;;10.40;;
18568;SDS011;14780;48.316;-1.050;2023-01-25T07:59:40;11.88;;;9.25;;
18568;SDS011;14780;48.316;-1.050;2023-01-25T08:02:25;13.40;;;9.80;;
18568;SDS011;14780;48.316;-1.050;2023-01-25T08:05:10;14.52;;;9.93;;
18568;SDS011;14780;48.316;-1.050;2023-01-25T08:07:54;12.95;;;9.45;;
18568;SDS011;14780;48.316;-1.050;2023-01-25T08:10:39;13.10;;;9.10;;
18568;SDS011;14780;48.316;-1.050;2023-01-25T08:13:23;11.82;;;8.23;;
18568;SDS011;14780;48.316;-1.050;2023-01-25T08:16:08;12.80;;;9.10;;
18568;SDS011;14780;48.316;-1.050;2023-01-25T08:18:54;11.50;;;9.10;;
18568;SDS011;14780;48.316;-1.050;2023-01-25T08:21:40;11.27;;;8.80;;
18568;SDS011;14780;48.316;-1.050;2023-01-25T08:24:25;12.75;;;9.15;;
18568;SDS011;14780;48.316;-1.050;2023-01-25T08:27:10;14.52;;;9.20;;
18568;SDS011;14780;48.316;-1.050;2023-01-25T08:29:54;12.32;;;8.98;;
18568;SDS011;14780;48.316;-1.050;2023-01-25T08:32:39;12.20;;;9.00;;
18568;SDS011;14780;48.316;-1.050;2023-01-25T08:35:23;11.85;;;8.15;;
18568;SDS011;14780;48.316;-1.050;2023-01-25T08:38:08;12.02;;;9.43;;
18568;SDS011;14780;48.316;-1.050;2023-01-25T08:40:52;12.27;;;9.27;;
18568;SDS011;14780;48.316;-1.050;2023-01-25T08:43:37;13.50;;;8.68;;
18568;SDS011;14780;48.316;-1.050;2023-01-25T08:46:23;12.35;;;9.60;;
18568;SDS011;14780;48.316;-1.050;2023-01-25T08:49:09;13.23;;;9.27;;
18568;SDS011;14780;48.316;-1.050;2023-01-25T08:51:54;13.40;;;8.98;;
18568;SDS011;14780;48.316;-1.050;2023-01-25T08:54:38;13.80;;;9.63;;
18568;SDS011;14780;48.316;-1.050;2023-01-25T08:57:26;13.48;;;8.75;;
18568;SDS011;14780;48.316;-1.050;2023-01-25T09:00:11;13.43;;;8.98;;
18568;SDS011;14780;48.316;-1.050;2023-01-25T09:02:56;13.55;;;9.13;;
18568;SDS011;14780;48.316;-1.050;2023-01-25T09:05:41;11.75;;;8.68;;
18568;SDS011;14780;48.316;-1.050;2023-01-25T09:08:26;11.45;;;8.38;;
18568;SDS011;14780;48.316;-1.050;2023-01-25T09:11:13;11.52;;;8.82;;
18568;SDS011;14780;48.316;-1.050;2023-01-25T09:13:59;13.57;;;8.73;;
18568;SDS011;14780;48.316;-1.050;2023-01-25T09:16:44;10.68;;;8.27;;
18568;SDS011;14780;48.316;-1.050;2023-01-25T09:19:29;15.02;;;9.60;;
18568;SDS011;14780;48.316;-1.050;2023-01-25T09:22:14;11.32;;;8.48;;
18568;SDS011;14780;48.316;-1.050;2023-01-25T09:24:58;11.63;;;8.77;;
18568;SDS011;14780;48.316;-1.050;2023-01-25T09:27:43;14.43;;;7.97;;
18568;SDS011;14780;48.316;-1.050;2023-01-25T09:30:29;11.82;;;8.30;;
18568;SDS011;14780;48.316;-1.050;2023-01-25T09:33:14;11.30;;;8.05;;
18568;SDS011;14780;48.316;-1.050;2023-01-25T09:35:59;10.48;;;8.32;;
18568;SDS011;14780;48.316;-1.050;2023-01-25T09:38:44;9.68;;;7.63;;
18568;SDS011;14780;48.316;-1.050;2023-01-25T09:41:49;11.52;;;7.80;;
18568;SDS011;14780;48.316;-1.050;2023-01-25T09:45:07;12.85;;;8.52;;
18568;SDS011;14780;48.316;-1.050;2023-01-25T09:48:08;10.98;;;7.60;;
18568;SDS011;14780;48.316;-1.050;2023-01-25T09:53:57;10.18;;;8.00;;
18568;SDS011;14780;48.316;-1.050;2023-01-25T09:56:43;10.80;;;8.55;;
18568;SDS011;14780;48.316;-1.050;2023-01-25T09:59:33;8.93;;;7.15;;
18568;SDS011;14780;48.316;-1.050;2023-01-25T10:05:16;10.50;;;8.00;;
18568;SDS011;14780;48.316;-1.050;2023-01-25T10:08:11;10.27;;;7.38;;
18568;SDS011;14780;48.316;-1.050;2023-01-25T10:14:27;9.63;;;7.50;;
18568;SDS011;14780;48.316;-1.050;2023-01-25T10:17:32;11.02;;;7.63;;
18568;SDS011;14780;48.316;-1.050;2023-01-25T10:26:43;9.55;;;7.45;;
18568;SDS011;14780;48.316;-1.050;2023-01-25T10:32:28;13.32;;;8.15;;
18568;SDS011;14780;48.316;-1.050;2023-01-25T10:35:16;11.30;;;9.00;;
18568;SDS011;14780;48.316;-1.050;2023-01-25T10:38:05;12.05;;;9.00;;
18568;SDS011;14780;48.316;-1.050;2023-01-25T10:40:59;13.45;;;8.50;;
18568;SDS011;14780;48.316;-1.050;2023-01-25T10:44:07;11.05;;;8.20;;
18568;SDS011;14780;48.316;-1.050;2023-01-25T10:47:50;11.32;;;8.35;;
18568;SDS011;14780;48.316;-1.050;2023-01-25T10:53:25;10.52;;;7.95;;
18568;SDS011;14780;48.316;-1.050;2023-01-25T10:56:14;10.85;;;7.70;;
18568;SDS011;14780;48.316;-1.050;2023-01-25T11:14:15;10.13;;;7.90;;
18568;SDS011;14780;48.316;-1.050;2023-01-25T11:17:01;11.48;;;8.35;;
18568;SDS011;14780;48.316;-1.050;2023-01-25T11:19:48;10.65;;;8.20;;
18568;SDS011;14780;48.316;-1.050;2023-01-25T11:22:53;12.05;;;9.48;;
18568;SDS011;14780;48.316;-1.050;2023-01-25T11:25:39;11.43;;;8.70;;
18568;SDS011;14780;48.316;-1.050;2023-01-25T11:28:23;14.50;;;9.55;;
18568;SDS011;14780;48.316;-1.050;2023-01-25T11:31:12;13.15;;;9.65;;
18568;SDS011;14780;48.316;-1.050;2023-01-25T11:33:58;14.80;;;9.38;;
18568;SDS011;14780;48.316;-1.050;2023-01-25T11:39:53;14.65;;;9.35;;
18568;SDS011;14780;48.316;-1.050;2023-01-25T11:49:02;11.23;;;9.05;;
18568;SDS011;14780;48.316;-1.050;2023-01-25T11:51:58;11.05;;;9.63;;
18568;SDS011;14780;48.316;-1.050;2023-01-25T11:55:09;12.30;;;8.73;;
18568;SDS011;14780;48.316;-1.050;2023-01-25T12:04:35;13.43;;;9.15;;
18568;SDS011;14780;48.316;-1.050;2023-01-25T12:14:05;11.60;;;9.00;;
18568;SDS011;14780;48.316;-1.050;2023-01-25T12:23:26;12.45;;;9.10;;
18568;SDS011;14780;48.316;-1.050;2023-01-25T12:26:27;11.65;;;9.13;;
18568;SDS011;14780;48.316;-1.050;2023-01-25T12:35:31;12.70;;;9.93;;
18568;SDS011;14780;48.316;-1.050;2023-01-25T12:44:17;10.68;;;8.25;;
18568;SDS011;14780;48.316;-1.050;2023-01-25T12:53:24;11.60;;;8.95;;
18568;SDS011;14780;48.316;-1.050;2023-01-25T12:56:35;12.95;;;8.82;;
18568;SDS011;14780;48.316;-1.050;2023-01-25T12:59:53;10.38;;;8.98;;
18568;SDS011;14780;48.316;-1.050;2023-01-25T13:09:00;10.40;;;8.77;;
18568;SDS011;14780;48.316;-1.050;2023-01-25T13:11:52;11.20;;;8.88;;
18568;SDS011;14780;48.316;-1.050;2023-01-25T13:14:40;10.25;;;8.48;;
18568;SDS011;14780;48.316;-1.050;2023-01-25T13:17:29;10.43;;;7.90;;
18568;SDS011;14780;48.316;-1.050;2023-01-25T13:29:41;11.30;;;8.98;;
18568;SDS011;14780;48.316;-1.050;2023-01-25T13:35:58;11.05;;;9.30;;
18568;SDS011;14780;48.316;-1.050;2023-01-25T13:38:27;13.15;;;10.23;;
18568;SDS011;14780;48.316;-1.050;2023-01-25T13:41:15;11.23;;;9.40;;
18568;SDS011;14780;48.316;-1.050;2023-01-25T13:44:19;12.50;;;9.73;;
18568;SDS011;14780;48.316;-1.050;2023-01-25T13:47:11;11.55;;;8.88;;
18568;SDS011;14780;48.316;-1.050;2023-01-25T13:56:04;11.70;;;8.85;;
18568;SDS011;14780;48.316;-1.050;2023-01-25T13:59:22;14.13;;;8.73;;
18568;SDS011;14780;48.316;-1.050;2023-01-25T14:05:00;10.50;;;8.07;;
18568;SDS011;14780;48.316;-1.050;2023-01-25T14:07:45;11.70;;;8.95;;
18568;SDS011;14780;48.316;-1.050;2023-01-25T14:10:32;11.32;;;8.77;;
18568;SDS011;14780;48.316;-1.050;2023-01-25T14:13:17;11.00;;;8.27;;
18568;SDS011;14780;48.316;-1.050;2023-01-25T14:16:07;13.40;;;9.13;;
18568;SDS011;14780;48.316;-1.050;2023-01-25T14:18:52;9.57;;;8.50;;
18568;SDS011;14780;48.316;-1.050;2023-01-25T14:21:38;10.82;;;7.95;;
18568;SDS011;14780;48.316;-1.050;2023-01-25T14:24:22;10.75;;;8.48;;
18568;SDS011;14780;48.316;-1.050;2023-01-25T14:27:10;10.65;;;9.10;;
18568;SDS011;14780;48.316;-1.050;2023-01-25T14:29:57;8.65;;;7.60;;
18568;SDS011;14780;48.316;-1.050;2023-01-25T14:32:42;9.52;;;7.88;;
18568;SDS011;14780;48.316;-1.050;2023-01-25T14:35:31;10.88;;;8.52;;
18568;SDS011;14780;48.316;-1.050;2023-01-25T14:41:12;10.33;;;8.53;;
18568;SDS011;14780;48.316;-1.050;2023-01-25T14:53:22;10.20;;;8.55;;
18568;SDS011;14780;48.316;-1.050;2023-01-25T14:56:28;9.60;;;7.97;;
18568;SDS011;14780;48.316;-1.050;2023-01-25T14:59:37;10.27;;;8.52;;
18568;SDS011;14780;48.316;-1.050;2023-01-25T15:02:37;9.48;;;7.72;;
18568;SDS011;14780;48.316;-1.050;2023-01-25T15:05:23;9.30;;;7.88;;
18568;SDS011;14780;48.316;-1.050;2023-01-25T15:08:14;11.07;;;8.00;;
18568;SDS011;14780;48.316;-1.050;2023-01-25T15:11:27;10.02;;;7.78;;
18568;SDS011;14780;48.316;-1.050;2023-01-25T15:14:32;9.10;;;7.90;;
18568;SDS011;14780;48.316;-1.050;2023-01-25T15:23:23;8.82;;;7.80;;
18568;SDS011;14780;48.316;-1.050;2023-01-25T15:26:15;11.07;;;8.02;;
18568;SDS011;14780;48.316;-1.050;2023-01-25T15:29:14;9.73;;;8.07;;
18568;SDS011;14780;48.316;-1.050;2023-01-25T15:32:03;9.40;;;7.50;;
18568;SDS011;14780;48.316;-1.050;2023-01-25T15:35:00;11.52;;;7.53;;
18568;SDS011;14780;48.316;-1.050;2023-01-25T15:37:45;10.75;;;7.88;;
18568;SDS011;14780;48.316;-1.050;2023-01-25T15:40:30;9.18;;;7.40;;
18568;SDS011;14780;48.316;-1.050;2023-01-25T15:43:16;10.63;;;7.63;;
18568;SDS011;14780;48.316;-1.050;2023-01-25T15:46:02;8.90;;;7.40;;
18568;SDS011;14780;48.316;-1.050;2023-01-25T15:48:48;9.05;;;7.20;;
18568;SDS011;14780;48.316;-1.050;2023-01-25T15:51:34;9.38;;;7.88;;
18568;SDS011;14780;48.316;-1.050;2023-01-25T15:54:19;9.20;;;7.57;;
18568;SDS011;14780;48.316;-1.050;2023-01-25T15:57:04;10.35;;;8.05;;
18568;SDS011;14780;48.316;-1.050;2023-01-25T15:59:53;9.45;;;7.88;;
18568;SDS011;14780;48.316;-1.050;2023-01-25T16:02:38;9.02;;;7.28;;
18568;SDS011;14780;48.316;-1.050;2023-01-25T16:05:23;10.48;;;7.30;;
18568;SDS011;14780;48.316;-1.050;2023-01-25T16:08:11;10.23;;;7.32;;
18568;SDS011;14780;48.316;-1.050;2023-01-25T16:10:59;8.57;;;7.15;;
18568;SDS011;14780;48.316;-1.050;2023-01-25T16:13:44;9.65;;;7.53;;
18568;SDS011;14780;48.316;-1.050;2023-01-25T16:16:29;10.45;;;7.57;;
18568;SDS011;14780;48.316;-1.050;2023-01-25T16:19:16;9.30;;;7.53;;
18568;SDS011;14780;48.316;-1.050;2023-01-25T16:22:03;11.73;;;7.05;;
18568;SDS011;14780;48.316;-1.050;2023-01-25T16:24:47;13.15;;;7.82;;
18568;SDS011;14780;48.316;-1.050;2023-01-25T16:27:32;10.30;;;7.75;;
18568;SDS011;14780;48.316;-1.050;2023-01-25T16:30:19;10.40;;;7.40;;
18568;SDS011;14780;48.316;-1.050;2023-01-25T16:33:05;13.20;;;8.20;;
18568;SDS011;14780;48.316;-1.050;2023-01-25T16:35:58;10.52;;;7.63;;
18568;SDS011;14780;48.316;-1.050;2023-01-25T16:38:53;14.77;;;8.60;;
18568;SDS011;14780;48.316;-1.050;2023-01-25T16:41:38;11.55;;;7.47;;
18568;SDS011;14780;48.316;-1.050;2023-01-25T16:44:22;10.77;;;7.80;;
18568;SDS011;14780;48.316;-1.050;2023-01-25T16:47:08;10.68;;;7.90;;
18568;SDS011;14780;48.316;-1.050;2023-01-25T16:49:59;9.63;;;7.85;;
18568;SDS011;14780;48.316;-1.050;2023-01-25T16:52:43;12.30;;;7.85;;
18568;SDS011;14780;48.316;-1.050;2023-01-25T16:55:31;11.95;;;8.07;;
18568;SDS011;14780;48.316;-1.050;2023-01-25T16:58:16;10.13;;;8.18;;
18568;SDS011;14780;48.316;-1.050;2023-01-25T17:01:06;16.05;;;9.02;;
18568;SDS011;14780;48.316;-1.050;2023-01-25T17:03:53;12.55;;;9.32;;
18568;SDS011;14780;48.316;-1.050;2023-01-25T17:06:43;13.60;;;8.93;;
18568;SDS011;14780;48.316;-1.050;2023-01-25T17:09:32;10.70;;;8.23;;
18568;SDS011;14780;48.316;-1.050;2023-01-25T17:12:17;10.48;;;8.85;;
18568;SDS011;14780;48.316;-1.050;2023-01-25T17:15:01;11.43;;;8.80;;
18568;SDS011;14780;48.316;-1.050;2023-01-25T17:17:46;10.02;;;7.80;;
18568;SDS011;14780;48.316;-1.050;2023-01-25T17:20:31;10.52;;;8.50;;
18568;SDS011;14780;48.316;-1.050;2023-01-25T17:23:16;13.15;;;8.55;;
18568;SDS011;14780;48.316;-1.050;2023-01-25T17:26:02;12.35;;;9.07;;
18568;SDS011;14780;48.316;-1.050;2023-01-25T17:28:48;10.90;;;8.73;;
18568;SDS011;14780;48.316;-1.050;2023-01-25T17:31:33;10.90;;;8.60;;
18568;SDS011;14780;48.316;-1.050;2023-01-25T17:34:18;12.65;;;8.23;;
18568;SDS011;14780;48.316;-1.050;2023-01-25T17:37:04;10.25;;;7.85;;
18568;SDS011;14780;48.316;-1.050;2023-01-25T17:39:49;11.73;;;7.53;;
18568;SDS011;14780;48.316;-1.050;2023-01-25T17:42:33;10.70;;;7.85;;
18568;SDS011;14780;48.316;-1.050;2023-01-25T17:45:18;10.85;;;7.50;;
18568;SDS011;14780;48.316;-1.050;2023-01-25T17:48:06;10.88;;;7.15;;
18568;SDS011;14780;48.316;-1.050;2023-01-25T17:51:01;9.68;;;6.90;;
18568;SDS011;14780;48.316;-1.050;2023-01-25T17:53:46;9.52;;;7.20;;
18568;SDS011;14780;48.316;-1.050;2023-01-25T17:56:31;10.82;;;6.93;;
18568;SDS011;14780;48.316;-1.050;2023-01-25T17:59:16;8.25;;;6.63;;
18568;SDS011;14780;48.316;-1.050;2023-01-25T18:02:01;7.97;;;6.65;;
18568;SDS011;14780;48.316;-1.050;2023-01-25T18:04:46;10.48;;;6.95;;
18568;SDS011;14780;48.316;-1.050;2023-01-25T18:07:31;9.20;;;7.28;;
18568;SDS011;14780;48.316;-1.050;2023-01-25T18:10:15;10.02;;;6.88;;
18568;SDS011;14780;48.316;-1.050;2023-01-25T18:13:01;10.02;;;6.90;;
18568;SDS011;14780;48.316;-1.050;2023-01-25T18:15:52;8.43;;;6.68;;
18568;SDS011;14780;48.316;-1.050;2023-01-25T18:18:38;11.13;;;6.97;;
18568;SDS011;14780;48.316;-1.050;2023-01-25T18:21:25;10.75;;;7.40;;
18568;SDS011;14780;48.316;-1.050;2023-01-25T18:24:26;10.70;;;6.68;;
18568;SDS011;14780;48.316;-1.050;2023-01-25T18:27:22;10.48;;;6.78;;
18568;SDS011;14780;48.316;-1.050;2023-01-25T18:33:16;9.98;;;7.18;;
18568;SDS011;14780;48.316;-1.050;2023-01-25T18:36:01;10.48;;;6.82;;
18568;SDS011;14780;48.316;-1.050;2023-01-25T18:38:48;10.18;;;7.72;;
18568;SDS011;14780;48.316;-1.050;2023-01-25T18:41:34;10.75;;;7.63;;